sensor_id;sensor_type;location;lat;lon;timestamp;temperature;humidity
3156;DHT22;1588;50.892;7.082;2023-03-24T00:03:25;13.40;99.90
3156;DHT22;1588;50.892;7.082;2023-03-24T00:08:31;13.30;99.90
3156;DHT22;1588;50.892;7.082;2023-03-24T00:13:35;13.30;99.90
3156;DHT22;1588;50.892;7.082;2023-03-24T00:18:38;13.30;99.90
3156;DHT22;1588;50.892;7.082;2023-03-24T00:23:42;13.30;99.90
3156;DHT22;1588;50.892;7.082;2023-03-24T00:28:46;13.20;99.90
3156;DHT22;1588;50.892;7.082;2023-03-24T00:33:49;13.20;99.90
3156;DHT22;1588;50.892;7.082;2023-03-24T00:38:53;13.20;99.90
3156;DHT22;1588;50.892;7.082;2023-03-24T00:43:57;13.20;99.90
3156;DHT22;1588;50.892;7.082;2023-03-24T00:49:00;13.20;99.90
3156;DHT22;1588;50.892;7.082;2023-03-24T00:54:10;13.30;99.90
3156;DHT22;1588;50.892;7.082;2023-03-24T00:59:13;13.20;99.90
3156;DHT22;1588;50.892;7.082;2023-03-24T01:04:16;13.30;99.90
3156;DHT22;1588;50.892;7.082;2023-03-24T01:09:22;13.40;99.90
3156;DHT22;1588;50.892;7.082;2023-03-24T01:14:27;13.40;99.90
3156;DHT22;1588;50.892;7.082;2023-03-24T01:19:30;13.40;99.90
3156;DHT22;1588;50.892;7.082;2023-03-24T01:24:34;13.40;99.90
3156;DHT22;1588;50.892;7.082;2023-03-24T01:29:37;13.40;99.90
3156;DHT22;1588;50.892;7.082;2023-03-24T01:34:41;13.50;99.90
3156;DHT22;1588;50.892;7.082;2023-03-24T01:39:45;13.50;99.90
3156;DHT22;1588;50.892;7.082;2023-03-24T01:44:49;13.60;99.90
3156;DHT22;1588;50.892;7.082;2023-03-24T01:49:55;13.60;99.90
3156;DHT22;1588;50.892;7.082;2023-03-24T01:55:03;13.60;99.90
3156;DHT22;1588;50.892;7.082;2023-03-24T02:00:10;13.50;99.90
3156;DHT22;1588;50.892;7.082;2023-03-24T02:05:16;13.60;99.90
3156;DHT22;1588;50.892;7.082;2023-03-24T02:10:22;13.70;99.90
3156;DHT22;1588;50.892;7.082;2023-03-24T02:15:28;13.60;99.90
3156;DHT22;1588;50.892;7.082;2023-03-24T02:26:46;13.30;99.90
3156;DHT22;1588;50.892;7.082;2023-03-24T02:32:24;13.20;99.90
3156;DHT22;1588;50.892;7.082;2023-03-24T02:37:57;13.20;99.90
3156;DHT22;1588;50.892;7.082;2023-03-24T02:43:23;13.10;99.90
3156;DHT22;1588;50.892;7.082;2023-03-24T02:48:33;13.20;99.90
3156;DHT22;1588;50.892;7.082;2023-03-24T02:53:45;13.20;99.90
3156;DHT22;1588;50.892;7.082;2023-03-24T02:58:54;13.10;99.90
3156;DHT22;1588;50.892;7.082;2023-03-24T03:04:02;13.20;99.90
3156;DHT22;1588;50.892;7.082;2023-03-24T03:09:08;13.30;99.90
3156;DHT22;1588;50.892;7.082;2023-03-24T03:14:16;13.40;99.90
3156;DHT22;1588;50.892;7.082;2023-03-24T03:19:21;13.60;99.90
3156;DHT22;1588;50.892;7.082;2023-03-24T03:24:28;13.50;99.90
3156;DHT22;1588;50.892;7.082;2023-03-24T03:29:37;13.60;99.90
3156;DHT22;1588;50.892;7.082;2023-03-24T03:34:44;13.60;99.90
3156;DHT22;1588;50.892;7.082;2023-03-24T03:39:50;13.60;99.90
3156;DHT22;1588;50.892;7.082;2023-03-24T03:44:55;13.60;99.90
3156;DHT22;1588;50.892;7.082;2023-03-24T03:49:58;13.50;99.90
3156;DHT22;1588;50.892;7.082;2023-03-24T03:55:01;13.50;99.90
3156;DHT22;1588;50.892;7.082;2023-03-24T04:00:06;13.50;99.90
3156;DHT22;1588;50.892;7.082;2023-03-24T04:05:27;13.60;99.90
3156;DHT22;1588;50.892;7.082;2023-03-24T04:10:44;13.70;99.90
3156;DHT22;1588;50.892;7.082;2023-03-24T04:15:53;13.70;99.90
3156;DHT22;1588;50.892;7.082;2023-03-24T04:21:07;13.60;99.90
3156;DHT22;1588;50.892;7.082;2023-03-24T04:26:17;13.60;99.90
3156;DHT22;1588;50.892;7.082;2023-03-24T04:31:31;13.50;99.90
3156;DHT22;1588;50.892;7.082;2023-03-24T04:36:40;13.50;99.90
3156;DHT22;1588;50.892;7.082;2023-03-24T04:41:44;13.50;99.90
3156;DHT22;1588;50.892;7.082;2023-03-24T04:46:55;13.50;99.90
3156;DHT22;1588;50.892;7.082;2023-03-24T04:51:59;13.60;99.90
3156;DHT22;1588;50.892;7.082;2023-03-24T04:57:01;13.50;99.90
3156;DHT22;1588;50.892;7.082;2023-03-24T05:02:05;13.50;99.90
3156;DHT22;1588;50.892;7.082;2023-03-24T05:07:09;13.40;99.90
3156;DHT22;1588;50.892;7.082;2023-03-24T05:12:11;13.40;99.90
3156;DHT22;1588;50.892;7.082;2023-03-24T05:17:15;12.80;99.90
3156;DHT22;1588;50.892;7.082;2023-03-24T05:22:17;12.20;99.90
3156;DHT22;1588;50.892;7.082;2023-03-24T05:27:22;12.00;99.90
3156;DHT22;1588;50.892;7.082;2023-03-24T05:32:26;11.80;99.90
3156;DHT22;1588;50.892;7.082;2023-03-24T05:37:29;11.60;99.90
3156;DHT22;1588;50.892;7.082;2023-03-24T05:42:31;11.50;99.90
3156;DHT22;1588;50.892;7.082;2023-03-24T05:47:35;11.40;99.90
3156;DHT22;1588;50.892;7.082;2023-03-24T05:52:40;11.40;99.90
3156;DHT22;1588;50.892;7.082;2023-03-24T05:57:46;11.30;99.90
3156;DHT22;1588;50.892;7.082;2023-03-24T06:02:52;11.30;99.90
3156;DHT22;1588;50.892;7.082;2023-03-24T06:07:55;11.50;99.90
3156;DHT22;1588;50.892;7.082;2023-03-24T06:12:58;11.50;99.90
3156;DHT22;1588;50.892;7.082;2023-03-24T06:18:02;11.40;99.90
3156;DHT22;1588;50.892;7.082;2023-03-24T06:23:08;11.40;99.90
3156;DHT22;1588;50.892;7.082;2023-03-24T06:28:11;11.40;99.90
3156;DHT22;1588;50.892;7.082;2023-03-24T06:33:15;11.50;99.90
3156;DHT22;1588;50.892;7.082;2023-03-24T06:38:18;11.40;99.90
3156;DHT22;1588;50.892;7.082;2023-03-24T06:43:20;11.50;99.90
3156;DHT22;1588;50.892;7.082;2023-03-24T06:48:24;11.60;99.90
3156;DHT22;1588;50.892;7.082;2023-03-24T06:53:27;11.90;99.90
3156;DHT22;1588;50.892;7.082;2023-03-24T06:58:29;11.90;99.90
3156;DHT22;1588;50.892;7.082;2023-03-24T07:03:33;11.70;99.90
3156;DHT22;1588;50.892;7.082;2023-03-24T07:08:36;11.50;99.90
3156;DHT22;1588;50.892;7.082;2023-03-24T07:13:38;11.50;99.90
3156;DHT22;1588;50.892;7.082;2023-03-24T07:18:42;11.40;99.90
3156;DHT22;1588;50.892;7.082;2023-03-24T07:23:44;11.40;99.90
3156;DHT22;1588;50.892;7.082;2023-03-24T07:28:47;11.30;99.90
3156;DHT22;1588;50.892;7.082;2023-03-24T07:33:51;11.30;99.90
3156;DHT22;1588;50.892;7.082;2023-03-24T07:38:53;11.20;99.90
3156;DHT22;1588;50.892;7.082;2023-03-24T07:43:56;11.20;99.90
3156;DHT22;1588;50.892;7.082;2023-03-24T07:49:00;11.20;99.90
3156;DHT22;1588;50.892;7.082;2023-03-24T07:54:03;11.10;99.90
3156;DHT22;1588;50.892;7.082;2023-03-24T07:59:05;11.30;99.90
3156;DHT22;1588;50.892;7.082;2023-03-24T08:04:11;11.40;99.90
3156;DHT22;1588;50.892;7.082;2023-03-24T08:09:14;11.60;99.90
3156;DHT22;1588;50.892;7.082;2023-03-24T08:14:17;11.60;99.90
3156;DHT22;1588;50.892;7.082;2023-03-24T08:19:21;11.60;99.90
3156;DHT22;1588;50.892;7.082;2023-03-24T08:24:23;11.60;99.90
3156;DHT22;1588;50.892;7.082;2023-03-24T08:29:26;11.70;99.90
3156;DHT22;1588;50.892;7.082;2023-03-24T08:34:29;11.80;99.90
3156;DHT22;1588;50.892;7.082;2023-03-24T08:39:32;14.30;99.90
3156;DHT22;1588;50.892;7.082;2023-03-24T08:44:35;16.80;99.90
3156;DHT22;1588;50.892;7.082;2023-03-24T08:49:39;18.20;99.90
3156;DHT22;1588;50.892;7.082;2023-03-24T08:54:41;16.70;99.90
3156;DHT22;1588;50.892;7.082;2023-03-24T08:59:47;16.80;99.90
3156;DHT22;1588;50.892;7.082;2023-03-24T09:04:50;17.10;99.90
3156;DHT22;1588;50.892;7.082;2023-03-24T09:09:54;18.60;99.90
3156;DHT22;1588;50.892;7.082;2023-03-24T09:15:19;19.10;99.90
3156;DHT22;1588;50.892;7.082;2023-03-24T09:20:23;15.90;99.90
3156;DHT22;1588;50.892;7.082;2023-03-24T09:25:26;14.40;99.90
3156;DHT22;1588;50.892;7.082;2023-03-24T09:30:31;16.40;99.90
3156;DHT22;1588;50.892;7.082;2023-03-24T09:35:35;19.20;99.90
3156;DHT22;1588;50.892;7.082;2023-03-24T09:40:39;20.40;99.90
3156;DHT22;1588;50.892;7.082;2023-03-24T09:45:48;17.60;99.90
3156;DHT22;1588;50.892;7.082;2023-03-24T09:50:56;16.40;99.90
3156;DHT22;1588;50.892;7.082;2023-03-24T09:56:07;16.40;99.90
3156;DHT22;1588;50.892;7.082;2023-03-24T10:01:13;18.10;99.90
3156;DHT22;1588;50.892;7.082;2023-03-24T10:06:20;17.10;99.90
3156;DHT22;1588;50.892;7.082;2023-03-24T10:11:29;17.30;99.90
3156;DHT22;1588;50.892;7.082;2023-03-24T10:16:40;17.70;99.90
3156;DHT22;1588;50.892;7.082;2023-03-24T10:21:53;18.40;99.90
3156;DHT22;1588;50.892;7.082;2023-03-24T10:27:11;17.90;99.90
3156;DHT22;1588;50.892;7.082;2023-03-24T10:32:19;18.50;99.90
3156;DHT22;1588;50.892;7.082;2023-03-24T10:37:24;17.00;99.90
3156;DHT22;1588;50.892;7.082;2023-03-24T10:42:31;16.50;99.90
3156;DHT22;1588;50.892;7.082;2023-03-24T10:47:44;15.40;99.90
3156;DHT22;1588;50.892;7.082;2023-03-24T10:52:50;15.60;99.90
3156;DHT22;1588;50.892;7.082;2023-03-24T10:57:55;16.00;99.90
3156;DHT22;1588;50.892;7.082;2023-03-24T11:03:00;15.70;99.90
3156;DHT22;1588;50.892;7.082;2023-03-24T11:08:24;15.20;99.90
3156;DHT22;1588;50.892;7.082;2023-03-24T11:13:32;15.60;99.90
3156;DHT22;1588;50.892;7.082;2023-03-24T11:18:35;16.40;99.90
3156;DHT22;1588;50.892;7.082;2023-03-24T11:23:40;17.70;99.90
3156;DHT22;1588;50.892;7.082;2023-03-24T11:28:46;17.70;99.90
3156;DHT22;1588;50.892;7.082;2023-03-24T11:33:54;16.90;99.90
3156;DHT22;1588;50.892;7.082;2023-03-24T11:39:01;16.20;99.90
3156;DHT22;1588;50.892;7.082;2023-03-24T11:44:15;16.50;99.90
3156;DHT22;1588;50.892;7.082;2023-03-24T11:49:20;18.70;99.90
3156;DHT22;1588;50.892;7.082;2023-03-24T11:54:29;19.60;99.90
3156;DHT22;1588;50.892;7.082;2023-03-24T11:59:35;18.80;99.90
3156;DHT22;1588;50.892;7.082;2023-03-24T12:04:58;17.50;99.90
3156;DHT22;1588;50.892;7.082;2023-03-24T12:10:19;17.70;99.90
3156;DHT22;1588;50.892;7.082;2023-03-24T12:15:32;17.60;99.90
3156;DHT22;1588;50.892;7.082;2023-03-24T12:20:41;17.50;99.90
3156;DHT22;1588;50.892;7.082;2023-03-24T12:25:59;17.30;99.90
3156;DHT22;1588;50.892;7.082;2023-03-24T12:31:12;17.60;99.90
3156;DHT22;1588;50.892;7.082;2023-03-24T12:42:04;18.80;99.90
3156;DHT22;1588;50.892;7.082;2023-03-24T12:47:17;18.00;99.90
3156;DHT22;1588;50.892;7.082;2023-03-24T12:52:35;17.90;99.90
3156;DHT22;1588;50.892;7.082;2023-03-24T12:57:46;18.10;99.90
3156;DHT22;1588;50.892;7.082;2023-03-24T13:02:52;17.50;99.90
3156;DHT22;1588;50.892;7.082;2023-03-24T13:07:59;18.10;99.90
3156;DHT22;1588;50.892;7.082;2023-03-24T13:13:09;18.40;99.90
3156;DHT22;1588;50.892;7.082;2023-03-24T13:18:27;18.40;99.90
3156;DHT22;1588;50.892;7.082;2023-03-24T13:23:38;18.30;99.90
3156;DHT22;1588;50.892;7.082;2023-03-24T13:28:50;17.90;99.90
3156;DHT22;1588;50.892;7.082;2023-03-24T13:33:55;18.00;99.90
3156;DHT22;1588;50.892;7.082;2023-03-24T13:39:01;18.30;99.90
3156;DHT22;1588;50.892;7.082;2023-03-24T13:44:14;17.30;99.90
3156;DHT22;1588;50.892;7.082;2023-03-24T13:49:18;17.50;99.90
3156;DHT22;1588;50.892;7.082;2023-03-24T13:54:25;17.40;99.90
3156;DHT22;1588;50.892;7.082;2023-03-24T13:59:31;18.20;99.90
3156;DHT22;1588;50.892;7.082;2023-03-24T14:04:45;18.20;99.90
3156;DHT22;1588;50.892;7.082;2023-03-24T14:09:58;17.50;99.90
3156;DHT22;1588;50.892;7.082;2023-03-24T14:15:17;16.60;99.90
3156;DHT22;1588;50.892;7.082;2023-03-24T14:20:31;15.50;99.90
3156;DHT22;1588;50.892;7.082;2023-03-24T14:25:34;15.50;99.90
3156;DHT22;1588;50.892;7.082;2023-03-24T14:31:01;15.20;99.90
3156;DHT22;1588;50.892;7.082;2023-03-24T14:36:05;15.30;99.90
3156;DHT22;1588;50.892;7.082;2023-03-24T14:41:14;15.40;99.90
3156;DHT22;1588;50.892;7.082;2023-03-24T14:51:54;15.70;99.90
3156;DHT22;1588;50.892;7.082;2023-03-24T14:56:58;15.90;99.90
3156;DHT22;1588;50.892;7.082;2023-03-24T15:02:19;15.50;99.90
3156;DHT22;1588;50.892;7.082;2023-03-24T15:07:29;14.80;99.90
3156;DHT22;1588;50.892;7.082;2023-03-24T15:12:32;14.90;99.90
3156;DHT22;1588;50.892;7.082;2023-03-24T15:17:35;15.10;99.90
3156;DHT22;1588;50.892;7.082;2023-03-24T15:22:41;15.10;99.90
3156;DHT22;1588;50.892;7.082;2023-03-24T15:27:48;15.30;99.90
3156;DHT22;1588;50.892;7.082;2023-03-24T15:32:55;15.70;99.90
3156;DHT22;1588;50.892;7.082;2023-03-24T15:37:59;16.00;99.90
3156;DHT22;1588;50.892;7.082;2023-03-24T15:43:15;16.30;99.90
3156;DHT22;1588;50.892;7.082;2023-03-24T15:48:21;16.20;99.90
3156;DHT22;1588;50.892;7.082;2023-03-24T15:53:37;16.30;99.90
3156;DHT22;1588;50.892;7.082;2023-03-24T15:58:48;16.20;99.90
3156;DHT22;1588;50.892;7.082;2023-03-24T16:03:53;16.00;99.90
3156;DHT22;1588;50.892;7.082;2023-03-24T16:09:05;15.70;99.90
3156;DHT22;1588;50.892;7.082;2023-03-24T16:14:19;15.50;99.90
3156;DHT22;1588;50.892;7.082;2023-03-24T16:19:22;15.30;99.90
3156;DHT22;1588;50.892;7.082;2023-03-24T16:24:26;15.00;99.90
3156;DHT22;1588;50.892;7.082;2023-03-24T16:29:28;14.70;99.90
3156;DHT22;1588;50.892;7.082;2023-03-24T16:34:31;13.80;99.90
3156;DHT22;1588;50.892;7.082;2023-03-24T16:39:35;12.10;99.90
3156;DHT22;1588;50.892;7.082;2023-03-24T16:44:40;11.50;99.90
3156;DHT22;1588;50.892;7.082;2023-03-24T16:49:42;11.20;99.90
3156;DHT22;1588;50.892;7.082;2023-03-24T16:54:45;11.00;99.90
3156;DHT22;1588;50.892;7.082;2023-03-24T16:59:48;11.00;99.90
3156;DHT22;1588;50.892;7.082;2023-03-24T17:04:50;11.00;99.90
3156;DHT22;1588;50.892;7.082;2023-03-24T17:09:54;10.90;99.90
3156;DHT22;1588;50.892;7.082;2023-03-24T17:14:57;10.90;99.90
3156;DHT22;1588;50.892;7.082;2023-03-24T17:19:59;10.70;99.90
3156;DHT22;1588;50.892;7.082;2023-03-24T17:25:03;11.00;99.90
3156;DHT22;1588;50.892;7.082;2023-03-24T17:30:07;10.90;99.90
3156;DHT22;1588;50.892;7.082;2023-03-24T17:35:13;10.70;99.90
3156;DHT22;1588;50.892;7.082;2023-03-24T17:40:18;10.50;99.90
3156;DHT22;1588;50.892;7.082;2023-03-24T17:45:21;10.30;99.90
3156;DHT22;1588;50.892;7.082;2023-03-24T17:50:23;10.00;99.90
3156;DHT22;1588;50.892;7.082;2023-03-24T17:55:28;10.00;99.90
3156;DHT22;1588;50.892;7.082;2023-03-24T18:00:31;9.90;99.90
3156;DHT22;1588;50.892;7.082;2023-03-24T18:05:34;9.90;99.90
3156;DHT22;1588;50.892;7.082;2023-03-24T18:10:38;10.00;99.90
3156;DHT22;1588;50.892;7.082;2023-03-24T18:15:41;10.10;99.90
3156;DHT22;1588;50.892;7.082;2023-03-24T18:20:48;10.10;99.90
3156;DHT22;1588;50.892;7.082;2023-03-24T18:25:57;10.10;99.90
3156;DHT22;1588;50.892;7.082;2023-03-24T18:31:00;10.20;99.90
3156;DHT22;1588;50.892;7.082;2023-03-24T18:36:03;10.10;99.90
3156;DHT22;1588;50.892;7.082;2023-03-24T18:41:08;10.00;99.90
3156;DHT22;1588;50.892;7.082;2023-03-24T18:46:13;9.80;99.90
3156;DHT22;1588;50.892;7.082;2023-03-24T18:51:15;9.90;99.90
3156;DHT22;1588;50.892;7.082;2023-03-24T18:56:24;9.90;99.90
3156;DHT22;1588;50.892;7.082;2023-03-24T19:01:26;10.00;99.90
3156;DHT22;1588;50.892;7.082;2023-03-24T19:06:30;10.00;99.90
3156;DHT22;1588;50.892;7.082;2023-03-24T19:11:36;10.00;99.90
3156;DHT22;1588;50.892;7.082;2023-03-24T19:16:39;10.00;99.90
3156;DHT22;1588;50.892;7.082;2023-03-24T19:21:41;10.00;99.90
3156;DHT22;1588;50.892;7.082;2023-03-24T19:26:45;9.90;99.90
3156;DHT22;1588;50.892;7.082;2023-03-24T19:31:50;9.80;99.90
3156;DHT22;1588;50.892;7.082;2023-03-24T19:36:53;9.90;99.90
3156;DHT22;1588;50.892;7.082;2023-03-24T19:41:57;9.90;99.90
3156;DHT22;1588;50.892;7.082;2023-03-24T19:47:04;9.90;99.90
3156;DHT22;1588;50.892;7.082;2023-03-24T19:52:06;10.00;99.90
3156;DHT22;1588;50.892;7.082;2023-03-24T19:57:10;10.20;99.90
3156;DHT22;1588;50.892;7.082;2023-03-24T20:02:14;10.20;99.90
3156;DHT22;1588;50.892;7.082;2023-03-24T20:07:17;10.30;99.90
3156;DHT22;1588;50.892;7.082;2023-03-24T20:12:20;10.20;99.90
3156;DHT22;1588;50.892;7.082;2023-03-24T20:17:26;10.30;99.90
3156;DHT22;1588;50.892;7.082;2023-03-24T20:22:29;10.40;99.90
3156;DHT22;1588;50.892;7.082;2023-03-24T20:27:33;10.20;99.90
3156;DHT22;1588;50.892;7.082;2023-03-24T20:32:35;10.20;99.90
3156;DHT22;1588;50.892;7.082;2023-03-24T20:37:38;10.20;99.90
3156;DHT22;1588;50.892;7.082;2023-03-24T20:42:42;10.20;99.90
3156;DHT22;1588;50.892;7.082;2023-03-24T20:47:44;10.10;99.90
3156;DHT22;1588;50.892;7.082;2023-03-24T20:52:47;10.10;99.90
3156;DHT22;1588;50.892;7.082;2023-03-24T20:57:53;10.00;99.90
3156;DHT22;1588;50.892;7.082;2023-03-24T21:03:01;10.00;99.90
3156;DHT22;1588;50.892;7.082;2023-03-24T21:08:04;10.00;99.90
3156;DHT22;1588;50.892;7.082;2023-03-24T21:13:11;10.00;99.90
3156;DHT22;1588;50.892;7.082;2023-03-24T21:18:13;10.00;99.90
3156;DHT22;1588;50.892;7.082;2023-03-24T21:23:15;10.10;99.90
3156;DHT22;1588;50.892;7.082;2023-03-24T21:28:19;10.20;99.90
3156;DHT22;1588;50.892;7.082;2023-03-24T21:33:22;10.20;99.90
3156;DHT22;1588;50.892;7.082;2023-03-24T21:38:25;10.10;99.90
3156;DHT22;1588;50.892;7.082;2023-03-24T21:43:29;10.10;99.90
3156;DHT22;1588;50.892;7.082;2023-03-24T21:48:34;10.00;99.90
3156;DHT22;1588;50.892;7.082;2023-03-24T21:53:40;10.00;99.90
3156;DHT22;1588;50.892;7.082;2023-03-24T21:58:45;9.90;99.90
3156;DHT22;1588;50.892;7.082;2023-03-24T22:03:47;10.00;99.90
3156;DHT22;1588;50.892;7.082;2023-03-24T22:08:50;10.00;99.90
3156;DHT22;1588;50.892;7.082;2023-03-24T22:14:09;10.00;99.90
3156;DHT22;1588;50.892;7.082;2023-03-24T22:19:13;10.00;99.90
3156;DHT22;1588;50.892;7.082;2023-03-24T22:24:18;10.00;99.90
3156;DHT22;1588;50.892;7.082;2023-03-24T22:29:25;10.00;99.90
3156;DHT22;1588;50.892;7.082;2023-03-24T22:34:28;10.10;99.90
3156;DHT22;1588;50.892;7.082;2023-03-24T22:39:41;10.10;99.90
3156;DHT22;1588;50.892;7.082;2023-03-24T22:44:47;10.10;99.90
3156;DHT22;1588;50.892;7.082;2023-03-24T22:49:51;10.00;99.90
3156;DHT22;1588;50.892;7.082;2023-03-24T22:54:54;10.00;99.90
3156;DHT22;1588;50.892;7.082;2023-03-24T22:59:57;10.00;99.90
3156;DHT22;1588;50.892;7.082;2023-03-24T23:05:01;10.00;99.90
3156;DHT22;1588;50.892;7.082;2023-03-24T23:10:09;10.00;99.90
3156;DHT22;1588;50.892;7.082;2023-03-24T23:15:13;10.10;99.90
3156;DHT22;1588;50.892;7.082;2023-03-24T23:20:18;10.10;99.90
3156;DHT22;1588;50.892;7.082;2023-03-24T23:25:22;10.00;99.90
3156;DHT22;1588;50.892;7.082;2023-03-24T23:30:25;10.00;99.90
3156;DHT22;1588;50.892;7.082;2023-03-24T23:35:28;10.00;99.90
3156;DHT22;1588;50.892;7.082;2023-03-24T23:40:30;9.90;99.90
3156;DHT22;1588;50.892;7.082;2023-03-24T23:45:34;9.80;99.90
3156;DHT22;1588;50.892;7.082;2023-03-24T23:50:37;9.70;99.90
3156;DHT22;1588;50.892;7.082;2023-03-24T23:55:39;9.70;99.90
